createdAt,value
2018-11-25T00:00:29.594Z,12.30
2018-11-25T00:02:58.991Z,12.80
2018-11-25T00:05:28.398Z,12.00
2018-11-25T00:07:57.956Z,12.73
2018-11-25T00:10:27.486Z,11.97
2018-11-25T00:12:56.922Z,11.47
2018-11-25T00:15:26.286Z,12.33
2018-11-25T00:17:55.685Z,11.93
2018-11-25T00:20:24.970Z,11.60
2018-11-25T00:22:54.550Z,11.90
2018-11-25T00:25:23.835Z,11.47
2018-11-25T00:27:53.249Z,12.43
2018-11-25T00:30:22.517Z,11.10
2018-11-25T00:32:51.943Z,12.43
2018-11-25T00:35:21.307Z,12.40
2018-11-25T00:37:50.699Z,11.60
2018-11-25T00:40:20.148Z,10.93
2018-11-25T00:42:49.527Z,11.07
2018-11-25T00:45:20.259Z,11.43
2018-11-25T00:47:50.367Z,11.10
2018-11-25T00:50:19.726Z,11.37
2018-11-25T00:52:49.127Z,11.03
2018-11-25T00:55:18.873Z,11.87
2018-11-25T00:57:48.305Z,11.10
2018-11-25T01:00:21.545Z,10.90
2018-11-25T01:02:51.315Z,11.37
2018-11-25T01:05:20.736Z,10.40
2018-11-25T01:07:50.054Z,10.00
2018-11-25T01:10:19.440Z,10.80
2018-11-25T01:12:48.719Z,10.67
2018-11-25T01:15:18.492Z,9.57
2018-11-25T01:17:47.933Z,10.77
2018-11-25T01:20:19.441Z,10.60
2018-11-25T01:22:48.742Z,10.27
2018-11-25T01:25:18.154Z,9.90
2018-11-25T01:27:47.553Z,10.33
2018-11-25T01:30:17.618Z,10.47
2018-11-25T01:32:46.971Z,11.70
2018-11-25T01:35:16.372Z,10.63
2018-11-25T01:37:45.675Z,10.07
2018-11-25T01:40:17.956Z,10.40
2018-11-25T01:42:47.416Z,9.43
2018-11-25T01:45:17.695Z,9.47
2018-11-25T01:47:47.106Z,9.90
2018-11-25T01:50:18.490Z,9.47
2018-11-25T01:52:48.201Z,9.53
2018-11-25T01:55:19.297Z,10.07
2018-11-25T01:57:48.637Z,9.73
2018-11-25T02:00:20.016Z,9.23
2018-11-25T02:02:49.633Z,9.07
2018-11-25T02:05:19.061Z,9.20
2018-11-25T02:07:48.355Z,9.03
2018-11-25T02:10:18.848Z,8.83
2018-11-25T02:12:48.262Z,9.10
2018-11-25T02:15:18.162Z,9.33
2018-11-25T02:17:47.617Z,9.30
2018-11-25T02:20:22.979Z,9.20
2018-11-25T02:22:53.523Z,8.87
2018-11-25T02:25:22.867Z,9.50
2018-11-25T02:27:52.544Z,9.00
2018-11-25T02:30:21.838Z,8.70
2018-11-25T02:32:51.146Z,9.57
2018-11-25T02:35:20.494Z,9.30
2018-11-25T02:37:49.802Z,9.07
2018-11-25T02:40:19.055Z,9.20
2018-11-25T02:42:48.302Z,8.70
2018-11-25T02:45:18.679Z,8.27
2018-11-25T02:47:48.039Z,9.07
2018-11-25T02:50:26.906Z,9.07
2018-11-25T02:52:57.354Z,8.60
2018-11-25T02:55:27.217Z,8.23
2018-11-25T02:57:56.494Z,8.23
2018-11-25T03:00:25.890Z,7.73
2018-11-25T03:02:55.174Z,8.17
2018-11-25T03:05:24.597Z,8.40
2018-11-25T03:07:54.061Z,7.77
2018-11-25T03:10:23.345Z,8.03
2018-11-25T03:12:53.190Z,7.90
2018-11-25T03:15:22.534Z,8.00
2018-11-25T03:17:51.718Z,7.77
2018-11-25T03:20:21.043Z,7.93
2018-11-25T03:22:50.364Z,7.67
2018-11-25T03:25:22.101Z,8.33
2018-11-25T03:27:51.405Z,7.87
2018-11-25T03:30:21.671Z,7.77
2018-11-25T03:32:52.114Z,8.10
2018-11-25T03:35:21.563Z,7.53
2018-11-25T03:37:50.923Z,7.73
2018-11-25T03:40:20.726Z,7.63
2018-11-25T03:42:50.053Z,8.63
2018-11-25T03:45:20.343Z,7.57
2018-11-25T03:47:49.664Z,7.63
2018-11-25T03:50:19.072Z,7.17
2018-11-25T03:52:48.398Z,7.93
2018-11-25T03:55:18.215Z,7.73
2018-11-25T03:57:47.546Z,7.67
2018-11-25T04:00:20.832Z,8.23
2018-11-25T04:02:51.215Z,7.73
2018-11-25T04:05:20.614Z,7.87
2018-11-25T04:07:49.870Z,8.20
2018-11-25T04:10:19.839Z,8.10
2018-11-25T04:12:49.188Z,7.57
2018-11-25T04:15:19.527Z,7.53
2018-11-25T04:17:49.221Z,7.50
2018-11-25T04:20:19.622Z,7.40
2018-11-25T04:22:49.155Z,6.97
2018-11-25T04:25:18.548Z,6.93
2018-11-25T04:27:47.908Z,6.90
2018-11-25T04:30:20.630Z,7.20
2018-11-25T04:32:50.829Z,6.13
2018-11-25T04:35:20.082Z,6.67
2018-11-25T04:37:49.372Z,6.40
2018-11-25T04:40:19.217Z,6.80
2018-11-25T04:42:48.516Z,6.03
2018-11-25T04:45:18.519Z,6.30
2018-11-25T04:47:48.263Z,6.00
2018-11-25T04:50:18.581Z,6.33
2018-11-25T04:52:47.971Z,6.73
2018-11-25T04:55:17.436Z,6.50
2018-11-25T04:57:49.725Z,7.53
2018-11-25T05:00:19.382Z,7.17
2018-11-25T05:02:49.068Z,6.87
2018-11-25T05:05:18.473Z,6.87
2018-11-25T05:07:47.770Z,6.43
2018-11-25T05:10:18.745Z,6.57
2018-11-25T05:12:48.036Z,6.50
2018-11-25T05:15:18.416Z,6.50
2018-11-25T05:17:47.842Z,6.43
2018-11-25T05:20:17.770Z,5.87
2018-11-25T05:22:47.132Z,6.73
2018-11-25T05:25:19.038Z,6.80
2018-11-25T05:27:48.348Z,6.40
2018-11-25T05:30:19.636Z,6.33
2018-11-25T05:32:48.917Z,6.17
2018-11-25T05:35:19.170Z,6.90
2018-11-25T05:37:48.392Z,5.80
2018-11-25T05:40:17.885Z,6.70
2018-11-25T05:42:47.230Z,6.33
2018-11-25T05:45:18.376Z,6.13
2018-11-25T05:47:47.747Z,6.70
2018-11-25T05:50:18.814Z,6.00
2018-11-25T05:52:48.157Z,5.90
2018-11-25T05:55:17.640Z,6.03
2018-11-25T05:57:46.876Z,6.50
2018-11-25T06:00:20.357Z,6.60
2018-11-25T06:02:49.693Z,6.60
2018-11-25T06:05:19.074Z,7.93
2018-11-25T06:07:48.416Z,7.70
2018-11-25T06:10:17.839Z,7.83
2018-11-25T06:12:47.115Z,8.07
2018-11-25T06:15:16.448Z,7.20
2018-11-25T06:17:45.924Z,6.90
2018-11-25T06:20:16.930Z,7.43
2018-11-25T06:22:46.779Z,6.27
2018-11-25T06:25:18.886Z,6.50
2018-11-25T06:27:48.368Z,6.83
2018-11-25T06:30:20.304Z,6.57
2018-11-25T06:32:49.734Z,6.67
2018-11-25T06:35:20.056Z,6.57
2018-11-25T06:37:49.319Z,6.20
2018-11-25T06:40:19.437Z,6.10
2018-11-25T06:42:48.857Z,6.67
2018-11-25T06:45:22.580Z,6.27
2018-11-25T06:47:51.938Z,9.30
2018-11-25T06:50:21.400Z,14.37
2018-11-25T06:52:50.755Z,17.40
2018-11-25T06:55:20.129Z,16.60
2018-11-25T06:57:49.437Z,17.03
2018-11-25T07:00:19.961Z,14.37
2018-11-25T07:02:49.302Z,13.80
2018-11-25T07:05:18.755Z,15.23
2018-11-25T07:07:48.097Z,13.70
2018-11-25T07:10:20.203Z,13.57
2018-11-25T07:12:50.730Z,12.57
2018-11-25T07:15:20.210Z,12.73
2018-11-25T07:17:49.538Z,13.20
2018-11-25T07:20:19.589Z,13.30
2018-11-25T07:22:48.893Z,13.80
2018-11-25T07:25:21.086Z,11.77
2018-11-25T07:27:50.421Z,12.50
2018-11-25T07:30:22.613Z,11.27
2018-11-25T07:32:51.946Z,12.90
2018-11-25T07:35:21.432Z,13.33
2018-11-25T07:37:50.749Z,13.03
2018-11-25T07:40:21.026Z,12.90
2018-11-25T07:42:50.522Z,12.13
2018-11-25T07:45:30.015Z,11.53
2018-11-25T07:47:53.132Z,12.53
2018-11-25T07:50:22.477Z,12.57
2018-11-25T07:52:52.277Z,11.77
2018-11-25T07:55:23.541Z,12.87
2018-11-25T07:57:53.949Z,12.20
2018-11-25T08:00:24.174Z,12.73
2018-11-25T08:02:53.615Z,12.60
2018-11-25T08:05:24.131Z,12.97
2018-11-25T08:07:53.526Z,11.00
2018-11-25T08:10:22.778Z,11.90
2018-11-25T08:12:52.306Z,11.87
2018-11-25T08:15:21.581Z,12.30
2018-11-25T08:17:50.973Z,12.73
2018-11-25T08:20:21.949Z,12.07
2018-11-25T08:22:51.535Z,12.80
2018-11-25T08:25:22.635Z,12.63
2018-11-25T08:27:52.425Z,13.20
2018-11-25T08:30:22.667Z,13.47
2018-11-25T08:32:52.315Z,12.57
2018-11-25T08:35:21.697Z,11.97
2018-11-25T08:37:51.005Z,11.93
2018-11-25T08:40:22.470Z,12.57
2018-11-25T08:42:51.867Z,12.23
2018-11-25T08:45:21.281Z,12.30
2018-11-25T08:47:50.636Z,12.17
2018-11-25T08:50:20.462Z,10.40
2018-11-25T08:52:52.029Z,10.93
2018-11-25T08:55:24.172Z,11.00
2018-11-25T08:57:53.641Z,10.50
2018-11-25T09:00:23.839Z,10.73
2018-11-25T09:02:54.393Z,9.93
2018-11-25T09:05:23.730Z,8.83
2018-11-25T09:07:52.978Z,9.53
2018-11-25T09:10:22.793Z,10.07
2018-11-25T09:12:56.600Z,9.70
2018-11-25T09:15:25.769Z,10.30
2018-11-25T09:17:55.058Z,10.00
2018-11-25T09:20:24.377Z,9.90
2018-11-25T09:22:53.917Z,10.10
2018-11-25T09:25:25.433Z,9.30
2018-11-25T09:27:54.798Z,9.27
2018-11-25T09:30:26.049Z,9.93
2018-11-25T09:32:55.344Z,8.70
2018-11-25T09:35:24.992Z,8.47
2018-11-25T09:37:54.231Z,9.17
2018-11-25T09:40:25.546Z,9.07
2018-11-25T09:42:54.941Z,10.00
2018-11-25T09:45:24.226Z,10.50
2018-11-25T09:47:53.506Z,9.60
2018-11-25T09:50:23.634Z,9.50
2018-11-25T09:52:53.015Z,9.17
2018-11-25T09:55:25.233Z,9.17
2018-11-25T09:57:58.616Z,9.90
2018-11-25T10:00:33.893Z,9.00
2018-11-25T10:03:03.967Z,8.97
2018-11-25T10:05:33.400Z,8.93
2018-11-25T10:08:02.835Z,8.60
2018-11-25T10:10:32.099Z,9.17
2018-11-25T10:13:01.458Z,7.93
2018-11-25T10:15:31.225Z,8.13
2018-11-25T10:18:00.554Z,7.97
2018-11-25T10:20:31.207Z,8.87
2018-11-25T10:23:00.605Z,8.07
2018-11-25T10:25:29.958Z,8.40
2018-11-25T10:27:59.291Z,8.77
2018-11-25T10:30:29.726Z,7.87
2018-11-25T10:33:01.221Z,8.23
2018-11-25T10:35:30.550Z,7.27
2018-11-25T10:37:59.837Z,8.63
2018-11-25T10:40:29.274Z,8.23
2018-11-25T10:42:58.556Z,7.63
2018-11-25T10:45:28.542Z,8.00
2018-11-25T10:47:58.614Z,7.90
2018-11-25T10:50:28.137Z,7.70
2018-11-25T10:52:57.432Z,7.83
2018-11-25T10:55:26.789Z,7.33
2018-11-25T10:57:56.100Z,7.57
2018-11-25T11:00:34.835Z,7.73
2018-11-25T11:03:09.319Z,7.77
2018-11-25T11:05:43.743Z,8.23
2018-11-25T11:08:13.090Z,7.03
2018-11-25T11:10:42.337Z,7.30
2018-11-25T11:13:11.759Z,7.40
2018-11-25T11:15:41.151Z,7.33
2018-11-25T11:18:10.412Z,7.37
2018-11-25T11:20:39.691Z,7.13
2018-11-25T11:23:09.014Z,6.90
2018-11-25T11:25:38.287Z,7.33
2018-11-25T11:28:07.615Z,7.13
2018-11-25T11:30:36.915Z,6.97
2018-11-25T11:33:06.299Z,7.13
2018-11-25T11:35:35.550Z,7.27
2018-11-25T11:38:04.842Z,7.17
2018-11-25T11:40:34.171Z,6.70
2018-11-25T11:43:03.461Z,6.93
2018-11-25T11:45:32.793Z,6.47
2018-11-25T11:48:02.024Z,7.17
2018-11-25T11:50:31.229Z,7.60
2018-11-25T11:53:00.538Z,7.40
2018-11-25T11:55:30.770Z,6.20
2018-11-25T11:58:00.073Z,6.73
2018-11-25T12:00:30.793Z,7.00
2018-11-25T12:03:00.418Z,6.87
2018-11-25T12:05:29.757Z,7.80
2018-11-25T12:07:59.084Z,8.13
2018-11-25T12:10:28.377Z,8.00
2018-11-25T12:12:57.742Z,7.20
2018-11-25T12:15:30.848Z,7.60
2018-11-25T12:17:58.066Z,6.87
2018-11-25T12:20:28.551Z,7.77
2018-11-25T12:22:58.284Z,7.83
2018-11-25T12:25:27.582Z,6.73
2018-11-25T12:27:56.934Z,7.70
2018-11-25T12:30:26.174Z,6.47
2018-11-25T12:32:55.546Z,6.83
2018-11-25T12:35:24.850Z,6.33
2018-11-25T12:37:54.225Z,7.20
2018-11-25T12:40:23.991Z,7.40
2018-11-25T12:42:54.593Z,7.67
2018-11-25T12:45:24.205Z,6.63
2018-11-25T12:47:53.476Z,7.23
2018-11-25T12:50:24.028Z,7.23
2018-11-25T12:52:53.393Z,7.20
2018-11-25T12:55:23.877Z,7.03
2018-11-25T12:57:54.021Z,7.40
2018-11-25T13:00:29.867Z,7.43
2018-11-25T13:02:59.066Z,7.50
2018-11-25T13:05:28.456Z,7.20
2018-11-25T13:07:57.765Z,6.30
2018-11-25T13:10:27.069Z,6.70
2018-11-25T13:12:56.360Z,7.63
2018-11-25T13:15:25.614Z,6.80
2018-11-25T13:17:54.913Z,7.83
2018-11-25T13:20:24.277Z,7.03
2018-11-25T13:22:53.558Z,7.20
2018-11-25T13:25:22.840Z,7.30
2018-11-25T13:27:52.187Z,7.37
2018-11-25T13:30:26.298Z,7.13
2018-11-25T13:32:57.570Z,7.10
2018-11-25T13:35:28.013Z,6.83
2018-11-25T13:37:57.431Z,6.97
2018-11-25T13:40:26.704Z,8.10
2018-11-25T13:42:56.054Z,8.20
2018-11-25T13:45:25.363Z,7.60
2018-11-25T13:47:54.661Z,7.23
2018-11-25T13:50:24.050Z,7.23
2018-11-25T13:52:53.418Z,7.10
2018-11-25T13:55:25.124Z,7.00
2018-11-25T13:57:54.484Z,8.07
2018-11-25T14:00:59.885Z,7.20
2018-11-25T14:03:37.504Z,9.30
2018-11-25T14:06:10.762Z,8.80
2018-11-25T14:08:40.127Z,9.00
2018-11-25T14:11:11.291Z,9.27
2018-11-25T14:13:40.694Z,8.10
2018-11-25T14:16:12.634Z,10.23
2018-11-25T14:18:41.948Z,12.40
2018-11-25T14:21:11.217Z,9.27
2018-11-25T14:23:40.530Z,10.70
2018-11-25T14:26:18.936Z,9.97
2018-11-25T14:28:48.866Z,9.03
2018-11-25T14:31:18.268Z,11.47
2018-11-25T14:33:47.602Z,9.67
2018-11-25T14:36:16.919Z,8.30
2018-11-25T14:38:46.266Z,8.40
2018-11-25T14:41:15.557Z,9.90
2018-11-25T14:43:44.878Z,9.10
2018-11-25T14:46:14.135Z,8.57
2018-11-25T14:48:43.374Z,9.10
2018-11-25T14:51:12.641Z,8.93
2018-11-25T14:53:41.867Z,9.40
2018-11-25T14:56:11.104Z,8.50
2018-11-25T14:58:40.425Z,8.60
2018-11-25T15:01:09.820Z,8.10
2018-11-25T15:03:39.109Z,8.67
2018-11-25T15:06:08.465Z,9.20
2018-11-25T15:08:37.814Z,9.20
2018-11-25T15:11:07.165Z,8.70
2018-11-25T15:13:36.414Z,9.97
2018-11-25T15:16:08.167Z,9.23
2018-11-25T15:18:37.489Z,9.20
2018-11-25T15:21:07.655Z,7.97
2018-11-25T15:23:36.984Z,9.40
2018-11-25T15:26:07.312Z,9.63
2018-11-25T15:28:36.685Z,9.87
2018-11-25T15:31:06.319Z,9.43
2018-11-25T15:33:36.158Z,10.33
2018-11-25T15:36:05.735Z,9.57
2018-11-25T15:38:34.969Z,9.27
2018-11-25T15:41:04.352Z,9.20
2018-11-25T15:43:33.590Z,8.60
2018-11-25T15:46:02.814Z,8.57
2018-11-25T15:48:33.015Z,9.00
2018-11-25T15:51:02.412Z,11.13
2018-11-25T15:53:31.636Z,9.47
2018-11-25T15:56:03.193Z,9.30
2018-11-25T15:58:32.551Z,8.47
2018-11-25T16:01:01.847Z,9.40
2018-11-25T16:03:31.091Z,9.63
2018-11-25T16:06:17.280Z,9.27
2018-11-25T16:08:46.553Z,9.60
2018-11-25T16:11:15.871Z,9.07
2018-11-25T16:13:45.179Z,10.10
2018-11-25T16:16:14.461Z,9.23
2018-11-25T16:18:43.813Z,9.13
2018-11-25T16:21:13.112Z,9.63
2018-11-25T16:23:42.442Z,9.47
2018-11-25T16:26:16.593Z,9.60
2018-11-25T16:28:47.594Z,8.60
2018-11-25T16:31:17.016Z,8.97
2018-11-25T16:33:46.358Z,9.00
2018-11-25T16:36:15.869Z,10.17
2018-11-25T16:38:45.228Z,9.33
2018-11-25T16:41:14.596Z,8.67
2018-11-25T16:43:43.997Z,9.23
2018-11-25T16:46:13.275Z,8.93
2018-11-25T16:48:42.564Z,8.63
2018-11-25T16:51:11.877Z,8.87
2018-11-25T16:53:41.261Z,10.57
2018-11-25T16:56:10.594Z,10.03
2018-11-25T16:58:39.880Z,9.70
2018-11-25T17:01:10.183Z,9.93
2018-11-25T17:03:38.586Z,10.10
2018-11-25T17:06:08.758Z,11.17
2018-11-25T17:08:39.800Z,10.73
2018-11-25T17:11:09.587Z,10.40
2018-11-25T17:13:38.963Z,12.60
2018-11-25T17:16:08.828Z,10.43
2018-11-25T17:18:38.706Z,11.53
2018-11-25T17:21:08.133Z,10.30
2018-11-25T17:23:37.453Z,11.13
2018-11-25T17:26:06.966Z,11.97
2018-11-25T17:28:36.356Z,11.03
2018-11-25T17:31:05.596Z,11.93
2018-11-25T17:33:35.041Z,11.77
2018-11-25T17:36:04.412Z,11.03
2018-11-25T17:38:33.669Z,11.67
2018-11-25T17:41:03.031Z,10.37
2018-11-25T17:43:32.310Z,11.70
2018-11-25T17:46:01.696Z,11.63
2018-11-25T17:48:30.941Z,11.47
2018-11-25T17:51:00.233Z,11.37
2018-11-25T17:53:29.541Z,11.07
2018-11-25T17:55:58.930Z,11.03
2018-11-25T17:58:28.193Z,11.73
2018-11-25T18:01:00.193Z,13.07
2018-11-25T18:03:30.948Z,13.30
2018-11-25T18:06:00.347Z,12.80
2018-11-25T18:08:29.669Z,12.37
2018-11-25T18:10:59.038Z,12.70
2018-11-25T18:13:31.015Z,11.37
2018-11-25T18:16:01.860Z,11.07
2018-11-25T18:18:48.910Z,11.60
2018-11-25T18:21:20.110Z,11.87
2018-11-25T18:23:49.385Z,11.50
2018-11-25T18:26:18.916Z,11.87
2018-11-25T18:28:48.258Z,12.17
2018-11-25T18:31:17.566Z,13.13
2018-11-25T18:33:46.845Z,12.60
2018-11-25T18:36:16.094Z,12.37
2018-11-25T18:38:45.413Z,12.67
2018-11-25T18:41:14.791Z,15.30
2018-11-25T18:43:43.999Z,14.80
2018-11-25T18:46:13.359Z,14.40
2018-11-25T18:48:45.172Z,12.90
2018-11-25T18:51:14.563Z,13.33
2018-11-25T18:53:43.885Z,12.43
2018-11-25T18:56:13.237Z,12.50
2018-11-25T18:58:42.541Z,12.77
2018-11-25T19:01:28.059Z,11.73
2018-11-25T19:03:57.431Z,12.30
2018-11-25T19:06:26.679Z,12.50
2018-11-25T19:08:56.035Z,12.33
2018-11-25T19:11:25.306Z,12.43
2018-11-25T19:13:54.590Z,12.57
2018-11-25T19:16:24.128Z,13.80
2018-11-25T19:18:53.413Z,14.30
2018-11-25T19:21:22.736Z,13.63
2018-11-25T19:23:52.018Z,14.83
2018-11-25T19:26:21.288Z,15.20
2018-11-25T19:28:50.681Z,15.90
2018-11-25T19:31:20.109Z,15.27
2018-11-25T19:33:49.523Z,16.37
2018-11-25T19:36:18.836Z,19.17
2018-11-25T19:38:48.125Z,21.63
2018-11-25T19:41:17.381Z,24.10
2018-11-25T19:43:46.763Z,23.57
2018-11-25T19:46:16.131Z,23.50
2018-11-25T19:48:45.610Z,24.13
2018-11-25T19:51:17.618Z,28.83
2018-11-25T19:53:44.363Z,24.73
2018-11-25T19:56:13.737Z,25.27
2018-11-25T19:58:43.049Z,25.27
2018-11-25T20:01:12.427Z,22.83
2018-11-25T20:03:41.914Z,25.20
2018-11-25T20:06:11.237Z,23.60
2018-11-25T20:08:40.634Z,21.97
2018-11-25T20:11:10.034Z,21.77
2018-11-25T20:13:39.348Z,20.20
2018-11-25T20:16:13.821Z,19.60
2018-11-25T20:18:43.162Z,20.40
2018-11-25T20:21:17.680Z,19.50
2018-11-25T20:23:47.069Z,20.20
2018-11-25T20:26:16.375Z,19.13
2018-11-25T20:28:45.754Z,19.00
2018-11-25T20:31:15.164Z,18.33
2018-11-25T20:33:52.339Z,18.07
2018-11-25T20:36:20.618Z,19.47
2018-11-25T20:38:55.362Z,18.07
2018-11-25T20:41:24.738Z,19.43
2018-11-25T20:43:53.998Z,18.63
2018-11-25T20:46:28.500Z,18.53
2018-11-25T20:48:57.790Z,18.83
2018-11-25T20:51:32.274Z,18.43
2018-11-25T20:54:01.783Z,18.03
2018-11-25T20:56:31.213Z,18.43
2018-11-25T20:59:00.622Z,17.97
2018-11-25T21:01:30.123Z,17.97
2018-11-25T21:03:59.575Z,18.60
2018-11-25T21:06:29.241Z,18.33
2018-11-25T21:08:58.907Z,17.43
2018-11-25T21:11:28.441Z,17.90
2018-11-25T21:13:57.831Z,16.83
2018-11-25T21:16:27.111Z,17.00
2018-11-25T21:18:56.479Z,17.67
2018-11-25T21:21:25.803Z,17.40
2018-11-25T21:23:55.238Z,16.50
2018-11-25T21:26:24.521Z,15.60
2018-11-25T21:28:53.863Z,17.20
2018-11-25T21:31:23.481Z,17.30
2018-11-25T21:33:52.854Z,16.37
2018-11-25T21:36:22.138Z,16.60
2018-11-25T21:38:51.502Z,16.70
2018-11-25T21:41:21.001Z,16.07
2018-11-25T21:43:50.272Z,15.90
2018-11-25T21:46:19.643Z,16.07
2018-11-25T21:48:49.014Z,15.57
2018-11-25T21:51:18.418Z,16.50
2018-11-25T21:53:47.774Z,16.17
2018-11-25T21:56:17.089Z,16.63
2018-11-25T21:58:46.353Z,15.50
2018-11-25T22:01:15.689Z,16.97
2018-11-25T22:03:45.058Z,16.83
2018-11-25T22:06:14.389Z,14.97
2018-11-25T22:08:43.774Z,16.07
2018-11-25T22:11:13.051Z,15.90
2018-11-25T22:13:42.320Z,16.20
2018-11-25T22:16:11.678Z,15.03
2018-11-25T22:18:40.986Z,15.30
2018-11-25T22:21:10.278Z,15.17
2018-11-25T22:23:39.593Z,16.00
2018-11-25T22:26:08.893Z,17.17
2018-11-25T22:28:38.185Z,15.07
2018-11-25T22:31:07.950Z,16.17
2018-11-25T22:33:37.354Z,16.83
2018-11-25T22:36:06.878Z,17.57
2018-11-25T22:38:36.193Z,15.90
2018-11-25T22:41:05.726Z,16.13
2018-11-25T22:43:35.102Z,14.83
2018-11-25T22:46:04.458Z,16.80
2018-11-25T22:48:33.742Z,15.93
2018-11-25T22:51:03.031Z,15.77
2018-11-25T22:53:32.384Z,14.83
2018-11-25T22:56:01.625Z,13.70
2018-11-25T22:58:30.938Z,16.20
2018-11-25T23:01:00.300Z,14.50
2018-11-25T23:03:29.638Z,14.20
2018-11-25T23:06:09.907Z,15.03
2018-11-25T23:08:39.205Z,14.83
2018-11-25T23:11:08.473Z,14.10
2018-11-25T23:13:37.721Z,14.47
2018-11-25T23:16:07.182Z,13.50
2018-11-25T23:18:36.409Z,13.40
2018-11-25T23:21:05.674Z,13.10
2018-11-25T23:23:35.093Z,15.97
2018-11-25T23:26:04.350Z,14.07
2018-11-25T23:28:33.567Z,14.87
2018-11-25T23:31:02.942Z,12.63
2018-11-25T23:33:32.244Z,13.63
2018-11-25T23:36:01.550Z,12.37
2018-11-25T23:38:30.818Z,13.83
2018-11-25T23:41:00.201Z,15.33
2018-11-25T23:43:29.501Z,13.67
2018-11-25T23:45:58.729Z,12.60
2018-11-25T23:48:28.017Z,12.90
2018-11-25T23:50:57.298Z,12.60
2018-11-25T23:53:26.548Z,12.73
2018-11-25T23:55:55.818Z,14.60
2018-11-25T23:58:25.080Z,12.60
